sensor_id;sensor_type;location;lat;lon;timestamp;pressure;altitude;pressure_sealevel;temperature;humidity
15529;BME280;7866;52.280;9.500;2022-09-13T00:00:35;99778.78;;;18.43;65.51
15529;BME280;7866;52.280;9.500;2022-09-13T00:05:37;99774.19;;;18.67;64.87
15529;BME280;7866;52.280;9.500;2022-09-13T00:10:41;99773.84;;;18.64;64.79
15529;BME280;7866;52.280;9.500;2022-09-13T00:15:44;99773.50;;;18.60;65.02
15529;BME280;7866;52.280;9.500;2022-09-13T00:20:46;99782.56;;;18.66;64.92
15529;BME280;7866;52.280;9.500;2022-09-13T00:25:49;99787.16;;;18.65;64.93
15529;BME280;7866;52.280;9.500;2022-09-13T00:30:51;99780.31;;;18.63;64.95
15529;BME280;7866;52.280;9.500;2022-09-13T00:35:52;99767.00;;;18.61;65.13
15529;BME280;7866;52.280;9.500;2022-09-13T00:40:55;99746.00;;;18.45;65.83
15529;BME280;7866;52.280;9.500;2022-09-13T00:45:57;99751.88;;;18.42;65.94
15529;BME280;7866;52.280;9.500;2022-09-13T00:50:59;99742.84;;;18.48;65.57
15529;BME280;7866;52.280;9.500;2022-09-13T00:56:07;99735.50;;;18.60;65.05
15529;BME280;7866;52.280;9.500;2022-09-13T01:01:12;99722.66;;;18.56;65.47
15529;BME280;7866;52.280;9.500;2022-09-13T01:06:16;99721.59;;;18.68;64.86
15529;BME280;7866;52.280;9.500;2022-09-13T01:11:28;99712.84;;;18.66;65.27
15529;BME280;7866;52.280;9.500;2022-09-13T01:16:30;99714.06;;;18.70;64.91
15529;BME280;7866;52.280;9.500;2022-09-13T01:27:29;99689.78;;;18.76;64.51
15529;BME280;7866;52.280;9.500;2022-09-13T01:32:46;99680.91;;;18.68;64.75
15529;BME280;7866;52.280;9.500;2022-09-13T01:37:57;99679.41;;;18.73;64.41
15529;BME280;7866;52.280;9.500;2022-09-13T01:43:13;99670.44;;;18.72;64.50
15529;BME280;7866;52.280;9.500;2022-09-13T01:48:26;99663.00;;;18.79;64.47
15529;BME280;7866;52.280;9.500;2022-09-13T01:53:39;99660.72;;;18.88;64.00
15529;BME280;7866;52.280;9.500;2022-09-13T01:58:47;99662.63;;;18.87;64.11
15529;BME280;7866;52.280;9.500;2022-09-13T02:03:55;99661.44;;;18.95;63.97
15529;BME280;7866;52.280;9.500;2022-09-13T02:09:01;99661.75;;;18.99;63.78
15529;BME280;7866;52.280;9.500;2022-09-13T02:14:06;99675.34;;;18.87;64.52
15529;BME280;7866;52.280;9.500;2022-09-13T02:19:14;99688.44;;;18.66;66.21
15529;BME280;7866;52.280;9.500;2022-09-13T02:24:20;99681.03;;;18.03;69.45
15529;BME280;7866;52.280;9.500;2022-09-13T02:29:26;99669.19;;;17.74;71.50
15529;BME280;7866;52.280;9.500;2022-09-13T02:34:34;99682.47;;;17.64;72.35
15529;BME280;7866;52.280;9.500;2022-09-13T02:39:44;99690.13;;;17.67;72.02
15529;BME280;7866;52.280;9.500;2022-09-13T02:44:51;99698.19;;;17.55;73.42
15529;BME280;7866;52.280;9.500;2022-09-13T02:50:01;99703.69;;;17.37;74.67
15529;BME280;7866;52.280;9.500;2022-09-13T02:55:16;99715.84;;;17.16;76.42
15529;BME280;7866;52.280;9.500;2022-09-13T03:00:20;99708.84;;;17.08;76.94
15529;BME280;7866;52.280;9.500;2022-09-13T03:05:23;99701.09;;;17.12;77.31
15529;BME280;7866;52.280;9.500;2022-09-13T03:10:29;99689.75;;;17.03;78.17
15529;BME280;7866;52.280;9.500;2022-09-13T03:15:47;99684.13;;;17.05;78.71
15529;BME280;7866;52.280;9.500;2022-09-13T03:20:59;99689.69;;;16.91;79.69
15529;BME280;7866;52.280;9.500;2022-09-13T03:26:29;99671.81;;;16.90;79.63
15529;BME280;7866;52.280;9.500;2022-09-13T03:31:36;99668.41;;;16.95;78.76
15529;BME280;7866;52.280;9.500;2022-09-13T03:36:46;99678.41;;;16.94;79.79
15529;BME280;7866;52.280;9.500;2022-09-13T03:41:54;99665.34;;;16.91;80.10
15529;BME280;7866;52.280;9.500;2022-09-13T03:47:00;99651.34;;;16.94;80.36
15529;BME280;7866;52.280;9.500;2022-09-13T03:52:05;99658.78;;;16.99;80.08
15529;BME280;7866;52.280;9.500;2022-09-13T03:57:09;99634.31;;;16.94;79.17
15529;BME280;7866;52.280;9.500;2022-09-13T04:02:12;99647.88;;;17.06;79.02
15529;BME280;7866;52.280;9.500;2022-09-13T04:07:16;99646.50;;;17.15;78.19
15529;BME280;7866;52.280;9.500;2022-09-13T04:12:18;99636.66;;;17.20;77.96
15529;BME280;7866;52.280;9.500;2022-09-13T04:17:20;99635.53;;;17.28;77.60
15529;BME280;7866;52.280;9.500;2022-09-13T04:22:23;99638.28;;;17.40;76.69
15529;BME280;7866;52.280;9.500;2022-09-13T04:27:24;99640.13;;;17.39;76.79
15529;BME280;7866;52.280;9.500;2022-09-13T04:32:26;99646.59;;;17.38;76.82
15529;BME280;7866;52.280;9.500;2022-09-13T04:37:30;99644.50;;;17.40;76.07
15529;BME280;7866;52.280;9.500;2022-09-13T04:42:31;99646.06;;;17.48;75.73
15529;BME280;7866;52.280;9.500;2022-09-13T04:47:33;99630.50;;;17.43;76.09
15529;BME280;7866;52.280;9.500;2022-09-13T04:52:36;99635.06;;;17.43;75.72
15529;BME280;7866;52.280;9.500;2022-09-13T04:57:38;99637.69;;;17.49;75.53
15529;BME280;7866;52.280;9.500;2022-09-13T05:02:39;99630.19;;;17.52;75.36
15529;BME280;7866;52.280;9.500;2022-09-13T05:07:42;99637.97;;;17.60;74.95
15529;BME280;7866;52.280;9.500;2022-09-13T05:12:44;99628.91;;;17.66;74.02
15529;BME280;7866;52.280;9.500;2022-09-13T05:17:45;99631.59;;;17.66;74.45
15529;BME280;7866;52.280;9.500;2022-09-13T05:22:48;99636.44;;;17.64;74.39
15529;BME280;7866;52.280;9.500;2022-09-13T05:27:50;99641.16;;;17.68;74.02
15529;BME280;7866;52.280;9.500;2022-09-13T05:32:52;99644.81;;;17.74;74.14
15529;BME280;7866;52.280;9.500;2022-09-13T05:37:55;99654.25;;;17.83;73.46
15529;BME280;7866;52.280;9.500;2022-09-13T05:42:57;99649.69;;;17.84;73.54
15529;BME280;7866;52.280;9.500;2022-09-13T05:47:59;99653.22;;;17.84;73.97
15529;BME280;7866;52.280;9.500;2022-09-13T05:53:02;99644.63;;;17.87;73.85
15529;BME280;7866;52.280;9.500;2022-09-13T05:58:03;99636.16;;;17.95;73.16
15529;BME280;7866;52.280;9.500;2022-09-13T06:03:05;99626.00;;;18.03;72.70
15529;BME280;7866;52.280;9.500;2022-09-13T06:08:08;99629.31;;;18.05;72.62
15529;BME280;7866;52.280;9.500;2022-09-13T06:13:10;99637.47;;;18.16;72.09
15529;BME280;7866;52.280;9.500;2022-09-13T06:18:12;99635.78;;;18.27;71.88
15529;BME280;7866;52.280;9.500;2022-09-13T06:23:15;99630.25;;;18.34;71.60
15529;BME280;7866;52.280;9.500;2022-09-13T06:28:17;99625.44;;;18.36;71.85
15529;BME280;7866;52.280;9.500;2022-09-13T06:33:18;99626.94;;;18.43;71.59
15529;BME280;7866;52.280;9.500;2022-09-13T06:38:22;99624.72;;;18.40;72.09
15529;BME280;7866;52.280;9.500;2022-09-13T06:43:24;99625.97;;;18.50;71.70
15529;BME280;7866;52.280;9.500;2022-09-13T06:48:26;99626.69;;;18.57;71.63
15529;BME280;7866;52.280;9.500;2022-09-13T06:53:32;99630.66;;;18.66;71.41
15529;BME280;7866;52.280;9.500;2022-09-13T06:58:36;99634.91;;;18.85;70.87
15529;BME280;7866;52.280;9.500;2022-09-13T07:03:38;99640.91;;;18.87;70.57
15529;BME280;7866;52.280;9.500;2022-09-13T07:08:42;99660.34;;;18.96;70.63
15529;BME280;7866;52.280;9.500;2022-09-13T07:13:46;99659.75;;;18.94;70.97
15529;BME280;7866;52.280;9.500;2022-09-13T07:18:50;99663.41;;;19.00;71.17
15529;BME280;7866;52.280;9.500;2022-09-13T07:23:55;99660.09;;;18.98;71.45
15529;BME280;7866;52.280;9.500;2022-09-13T07:28:58;99655.66;;;18.91;71.42
15529;BME280;7866;52.280;9.500;2022-09-13T07:34:02;99658.16;;;18.81;71.84
15529;BME280;7866;52.280;9.500;2022-09-13T07:39:05;99658.38;;;18.91;71.81
15529;BME280;7866;52.280;9.500;2022-09-13T07:44:08;99657.84;;;18.94;71.69
15529;BME280;7866;52.280;9.500;2022-09-13T07:49:12;99667.16;;;18.99;71.84
15529;BME280;7866;52.280;9.500;2022-09-13T07:54:16;99675.66;;;19.02;72.09
15529;BME280;7866;52.280;9.500;2022-09-13T07:59:18;99671.66;;;19.05;72.08
15529;BME280;7866;52.280;9.500;2022-09-13T08:04:24;99675.75;;;19.19;71.65
15529;BME280;7866;52.280;9.500;2022-09-13T08:09:27;99687.50;;;19.25;71.58
15529;BME280;7866;52.280;9.500;2022-09-13T08:14:29;99685.22;;;19.33;71.63
15529;BME280;7866;52.280;9.500;2022-09-13T08:19:30;99699.22;;;19.42;71.44
15529;BME280;7866;52.280;9.500;2022-09-13T08:24:33;99696.84;;;19.45;71.29
15529;BME280;7866;52.280;9.500;2022-09-13T08:29:35;99702.19;;;19.40;71.95
15529;BME280;7866;52.280;9.500;2022-09-13T08:34:36;99703.66;;;19.31;72.57
15529;BME280;7866;52.280;9.500;2022-09-13T08:39:39;99702.13;;;19.35;73.39
15529;BME280;7866;52.280;9.500;2022-09-13T08:44:44;99706.69;;;19.35;73.73
15529;BME280;7866;52.280;9.500;2022-09-13T08:49:49;99704.19;;;19.45;73.59
15529;BME280;7866;52.280;9.500;2022-09-13T08:54:54;99692.59;;;19.50;73.65
15529;BME280;7866;52.280;9.500;2022-09-13T09:00:02;99691.28;;;19.52;73.14
15529;BME280;7866;52.280;9.500;2022-09-13T09:05:12;99696.94;;;19.51;73.77
15529;BME280;7866;52.280;9.500;2022-09-13T09:10:19;99697.13;;;19.44;74.77
15529;BME280;7866;52.280;9.500;2022-09-13T09:15:23;99702.53;;;19.44;74.56
15529;BME280;7866;52.280;9.500;2022-09-13T09:20:27;99709.91;;;19.60;74.33
15529;BME280;7866;52.280;9.500;2022-09-13T09:25:33;99702.56;;;19.73;74.75
15529;BME280;7866;52.280;9.500;2022-09-13T09:30:40;99702.50;;;20.01;73.94
15529;BME280;7866;52.280;9.500;2022-09-13T09:35:53;99704.94;;;19.86;74.05
15529;BME280;7866;52.280;9.500;2022-09-13T09:40:59;99687.41;;;19.93;74.17
15529;BME280;7866;52.280;9.500;2022-09-13T09:46:04;99693.25;;;19.85;74.52
15529;BME280;7866;52.280;9.500;2022-09-13T09:51:10;99694.75;;;19.93;74.56
15529;BME280;7866;52.280;9.500;2022-09-13T09:56:20;99700.09;;;20.22;74.12
15529;BME280;7866;52.280;9.500;2022-09-13T10:01:24;99693.91;;;20.26;74.26
15529;BME280;7866;52.280;9.500;2022-09-13T10:06:27;99700.34;;;20.20;74.26
15529;BME280;7866;52.280;9.500;2022-09-13T10:11:46;99695.91;;;20.31;74.45
15529;BME280;7866;52.280;9.500;2022-09-13T10:17:01;99700.69;;;20.24;74.64
15529;BME280;7866;52.280;9.500;2022-09-13T10:22:07;99690.84;;;20.23;75.09
15529;BME280;7866;52.280;9.500;2022-09-13T10:27:24;99691.41;;;20.41;74.68
15529;BME280;7866;52.280;9.500;2022-09-13T10:32:27;99684.94;;;20.81;74.16
15529;BME280;7866;52.280;9.500;2022-09-13T10:37:30;99680.75;;;20.96;72.86
15529;BME280;7866;52.280;9.500;2022-09-13T10:42:36;99678.53;;;21.36;71.68
15529;BME280;7866;52.280;9.500;2022-09-13T10:47:43;99688.09;;;21.39;71.70
15529;BME280;7866;52.280;9.500;2022-09-13T10:52:46;99699.94;;;21.28;73.23
15529;BME280;7866;52.280;9.500;2022-09-13T10:57:50;99699.44;;;21.09;72.90
15529;BME280;7866;52.280;9.500;2022-09-13T11:03:02;99699.81;;;20.96;73.88
15529;BME280;7866;52.280;9.500;2022-09-13T11:08:24;99702.91;;;21.04;73.40
15529;BME280;7866;52.280;9.500;2022-09-13T11:13:38;99693.59;;;21.22;72.46
15529;BME280;7866;52.280;9.500;2022-09-13T11:19:03;99693.03;;;20.76;74.81
15529;BME280;7866;52.280;9.500;2022-09-13T11:24:22;99676.91;;;21.35;73.49
15529;BME280;7866;52.280;9.500;2022-09-13T11:29:41;99671.94;;;21.32;72.73
15529;BME280;7866;52.280;9.500;2022-09-13T12:10:09;99685.75;;;20.60;76.35
15529;BME280;7866;52.280;9.500;2022-09-13T12:15:17;99685.34;;;20.51;76.76
15529;BME280;7866;52.280;9.500;2022-09-13T12:20:29;99677.63;;;20.65;75.94
15529;BME280;7866;52.280;9.500;2022-09-13T12:25:38;99680.88;;;20.84;75.39
15529;BME280;7866;52.280;9.500;2022-09-13T12:30:47;99673.50;;;20.79;76.15
15529;BME280;7866;52.280;9.500;2022-09-13T12:41:12;99666.63;;;21.21;74.85
15529;BME280;7866;52.280;9.500;2022-09-13T12:46:51;99684.22;;;21.62;73.48
15529;BME280;7866;52.280;9.500;2022-09-13T12:52:08;99676.69;;;20.76;77.17
15529;BME280;7866;52.280;9.500;2022-09-13T12:57:25;99678.84;;;20.35;80.45
15529;BME280;7866;52.280;9.500;2022-09-13T13:02:33;99670.81;;;20.46;79.21
15529;BME280;7866;52.280;9.500;2022-09-13T13:07:36;99668.19;;;20.34;80.21
15529;BME280;7866;52.280;9.500;2022-09-13T13:12:39;99671.84;;;20.06;81.92
15529;BME280;7866;52.280;9.500;2022-09-13T13:17:44;99667.91;;;19.97;82.40
15529;BME280;7866;52.280;9.500;2022-09-13T13:22:51;99668.22;;;20.17;81.77
15529;BME280;7866;52.280;9.500;2022-09-13T13:27:54;99660.34;;;20.37;80.78
15529;BME280;7866;52.280;9.500;2022-09-13T13:33:14;99658.16;;;20.73;79.95
15529;BME280;7866;52.280;9.500;2022-09-13T13:38:50;99664.19;;;20.75;79.36
15529;BME280;7866;52.280;9.500;2022-09-13T13:43:54;99662.06;;;21.04;77.20
15529;BME280;7866;52.280;9.500;2022-09-13T13:49:41;99651.69;;;21.23;76.84
15529;BME280;7866;52.280;9.500;2022-09-13T13:55:00;99648.25;;;21.60;73.97
15529;BME280;7866;52.280;9.500;2022-09-13T14:00:11;99645.78;;;21.31;74.39
15529;BME280;7866;52.280;9.500;2022-09-13T14:05:17;99643.28;;;21.30;74.27
15529;BME280;7866;52.280;9.500;2022-09-13T14:10:26;99641.06;;;21.49;74.20
15529;BME280;7866;52.280;9.500;2022-09-13T14:15:43;99643.69;;;21.38;73.54
15529;BME280;7866;52.280;9.500;2022-09-13T14:20:58;99634.16;;;21.41;73.76
15529;BME280;7866;52.280;9.500;2022-09-13T14:26:00;99642.63;;;21.39;73.72
15529;BME280;7866;52.280;9.500;2022-09-13T14:31:03;99630.19;;;21.54;73.31
15529;BME280;7866;52.280;9.500;2022-09-13T14:36:12;99631.53;;;21.78;71.93
15529;BME280;7866;52.280;9.500;2022-09-13T14:41:18;99616.75;;;21.74;71.30
15529;BME280;7866;52.280;9.500;2022-09-13T14:46:24;99626.13;;;21.88;70.62
15529;BME280;7866;52.280;9.500;2022-09-13T14:51:29;99623.22;;;22.37;68.45
15529;BME280;7866;52.280;9.500;2022-09-13T14:56:36;99622.28;;;22.69;68.08
15529;BME280;7866;52.280;9.500;2022-09-13T15:01:42;99630.69;;;22.57;68.02
15529;BME280;7866;52.280;9.500;2022-09-13T15:06:44;99625.53;;;22.13;69.36
15529;BME280;7866;52.280;9.500;2022-09-13T15:23:49;99614.59;;;21.76;70.29
15529;BME280;7866;52.280;9.500;2022-09-13T15:28:53;99616.16;;;21.67;71.06
15529;BME280;7866;52.280;9.500;2022-09-13T15:34:17;99614.91;;;21.48;71.15
15529;BME280;7866;52.280;9.500;2022-09-13T15:39:22;99606.50;;;21.27;73.42
15529;BME280;7866;52.280;9.500;2022-09-13T15:44:24;99616.75;;;21.42;72.96
15529;BME280;7866;52.280;9.500;2022-09-13T15:49:27;99626.75;;;21.63;71.19
15529;BME280;7866;52.280;9.500;2022-09-13T15:54:33;99623.56;;;21.72;70.06
15529;BME280;7866;52.280;9.500;2022-09-13T15:59:35;99615.84;;;21.63;70.71
15529;BME280;7866;52.280;9.500;2022-09-13T16:04:37;99618.16;;;21.50;70.33
15529;BME280;7866;52.280;9.500;2022-09-13T16:09:40;99612.72;;;21.50;70.32
15529;BME280;7866;52.280;9.500;2022-09-13T16:14:42;99610.16;;;21.38;71.60
15529;BME280;7866;52.280;9.500;2022-09-13T16:24:47;99620.13;;;21.27;70.27
15529;BME280;7866;52.280;9.500;2022-09-13T16:29:49;99617.56;;;21.15;71.31
15529;BME280;7866;52.280;9.500;2022-09-13T16:34:51;99617.47;;;20.83;72.76
15529;BME280;7866;52.280;9.500;2022-09-13T16:39:56;99621.22;;;20.55;73.81
15529;BME280;7866;52.280;9.500;2022-09-13T16:44:58;99615.75;;;20.38;74.34
15529;BME280;7866;52.280;9.500;2022-09-13T16:50:00;99611.06;;;20.12;74.85
15529;BME280;7866;52.280;9.500;2022-09-13T16:55:04;99611.72;;;20.02;75.05
15529;BME280;7866;52.280;9.500;2022-09-13T17:00:06;99606.97;;;19.76;75.97
15529;BME280;7866;52.280;9.500;2022-09-13T17:05:11;99605.69;;;19.50;76.76
15529;BME280;7866;52.280;9.500;2022-09-13T17:10:14;99608.28;;;19.28;77.39
15529;BME280;7866;52.280;9.500;2022-09-13T17:15:16;99605.03;;;19.14;77.73
15529;BME280;7866;52.280;9.500;2022-09-13T17:20:18;99608.94;;;18.89;77.64
15529;BME280;7866;52.280;9.500;2022-09-13T17:25:21;99608.06;;;18.72;77.89
15529;BME280;7866;52.280;9.500;2022-09-13T17:30:24;99608.50;;;18.69;77.82
15529;BME280;7866;52.280;9.500;2022-09-13T17:35:26;99617.00;;;18.61;77.77
15529;BME280;7866;52.280;9.500;2022-09-13T17:40:31;99611.34;;;18.51;77.40
15529;BME280;7866;52.280;9.500;2022-09-13T17:45:33;99614.81;;;18.34;77.24
15529;BME280;7866;52.280;9.500;2022-09-13T17:50:36;99622.38;;;18.20;77.39
15529;BME280;7866;52.280;9.500;2022-09-13T17:55:46;99622.47;;;18.14;77.18
15529;BME280;7866;52.280;9.500;2022-09-13T18:00:48;99625.66;;;17.99;76.85
15529;BME280;7866;52.280;9.500;2022-09-13T18:05:53;99627.78;;;17.97;76.67
15529;BME280;7866;52.280;9.500;2022-09-13T18:11:01;99628.84;;;17.84;76.47
15529;BME280;7866;52.280;9.500;2022-09-13T18:16:05;99633.28;;;17.79;76.48
15529;BME280;7866;52.280;9.500;2022-09-13T18:21:07;99639.97;;;17.64;76.67
15529;BME280;7866;52.280;9.500;2022-09-13T18:26:12;99643.00;;;17.56;76.67
15529;BME280;7866;52.280;9.500;2022-09-13T18:31:16;99633.72;;;17.64;76.42
15529;BME280;7866;52.280;9.500;2022-09-13T18:36:18;99646.63;;;17.50;76.75
15529;BME280;7866;52.280;9.500;2022-09-13T18:41:24;99641.09;;;17.45;76.28
15529;BME280;7866;52.280;9.500;2022-09-13T18:46:28;99654.78;;;17.62;75.45
15529;BME280;7866;52.280;9.500;2022-09-13T18:51:32;99655.06;;;17.72;74.81
15529;BME280;7866;52.280;9.500;2022-09-13T18:56:36;99640.53;;;17.66;74.60
15529;BME280;7866;52.280;9.500;2022-09-13T19:01:40;99651.50;;;17.60;74.38
15529;BME280;7866;52.280;9.500;2022-09-13T19:06:42;99654.31;;;17.65;74.44
15529;BME280;7866;52.280;9.500;2022-09-13T19:11:47;99660.31;;;17.67;74.17
15529;BME280;7866;52.280;9.500;2022-09-13T19:16:50;99670.69;;;17.70;73.91
15529;BME280;7866;52.280;9.500;2022-09-13T19:21:52;99663.03;;;17.67;73.42
15529;BME280;7866;52.280;9.500;2022-09-13T19:26:55;99667.25;;;17.63;73.49
15529;BME280;7866;52.280;9.500;2022-09-13T19:31:56;99672.09;;;17.61;73.16
15529;BME280;7866;52.280;9.500;2022-09-13T19:36:58;99681.75;;;17.57;72.95
15529;BME280;7866;52.280;9.500;2022-09-13T19:42:01;99684.66;;;17.55;72.57
15529;BME280;7866;52.280;9.500;2022-09-13T19:47:03;99687.72;;;17.59;72.72
15529;BME280;7866;52.280;9.500;2022-09-13T19:52:06;99687.34;;;17.43;73.19
15529;BME280;7866;52.280;9.500;2022-09-13T19:57:09;99687.06;;;17.33;73.48
15529;BME280;7866;52.280;9.500;2022-09-13T20:02:12;99682.25;;;17.35;73.65
15529;BME280;7866;52.280;9.500;2022-09-13T20:07:14;99677.75;;;17.29;73.99
15529;BME280;7866;52.280;9.500;2022-09-13T20:12:17;99679.72;;;17.22;74.78
15529;BME280;7866;52.280;9.500;2022-09-13T20:17:23;99680.34;;;17.06;75.16
15529;BME280;7866;52.280;9.500;2022-09-13T20:22:24;99682.94;;;17.01;75.55
15529;BME280;7866;52.280;9.500;2022-09-13T20:27:27;99685.63;;;17.01;76.08
15529;BME280;7866;52.280;9.500;2022-09-13T20:32:29;99682.47;;;16.85;76.69
15529;BME280;7866;52.280;9.500;2022-09-13T20:37:31;99692.66;;;16.65;77.03
15529;BME280;7866;52.280;9.500;2022-09-13T20:42:34;99682.22;;;16.50;77.48
15529;BME280;7866;52.280;9.500;2022-09-13T20:47:36;99680.72;;;16.36;77.76
15529;BME280;7866;52.280;9.500;2022-09-13T20:52:38;99679.88;;;16.35;78.00
15529;BME280;7866;52.280;9.500;2022-09-13T20:57:41;99673.25;;;16.31;78.09
15529;BME280;7866;52.280;9.500;2022-09-13T21:02:43;99676.84;;;16.25;77.48
15529;BME280;7866;52.280;9.500;2022-09-13T21:07:45;99683.66;;;16.09;77.88
15529;BME280;7866;52.280;9.500;2022-09-13T21:13:06;99680.41;;;16.00;78.08
15529;BME280;7866;52.280;9.500;2022-09-13T21:18:08;99684.88;;;15.88;78.11
15529;BME280;7866;52.280;9.500;2022-09-13T21:23:10;99677.97;;;15.92;78.45
15529;BME280;7866;52.280;9.500;2022-09-13T21:28:13;99683.84;;;15.83;78.39
15529;BME280;7866;52.280;9.500;2022-09-13T21:33:15;99674.94;;;15.82;78.13
15529;BME280;7866;52.280;9.500;2022-09-13T21:38:16;99669.03;;;15.67;78.73
15529;BME280;7866;52.280;9.500;2022-09-13T21:43:19;99670.47;;;15.63;79.22
15529;BME280;7866;52.280;9.500;2022-09-13T21:48:21;99670.53;;;15.56;78.93
15529;BME280;7866;52.280;9.500;2022-09-13T21:53:23;99668.03;;;15.55;78.96
15529;BME280;7866;52.280;9.500;2022-09-13T21:58:26;99669.34;;;15.45;79.16
15529;BME280;7866;52.280;9.500;2022-09-13T22:03:27;99669.19;;;15.40;79.07
15529;BME280;7866;52.280;9.500;2022-09-13T22:08:30;99671.09;;;15.33;79.32
15529;BME280;7866;52.280;9.500;2022-09-13T22:13:34;99671.09;;;15.33;79.51
15529;BME280;7866;52.280;9.500;2022-09-13T22:18:36;99667.34;;;15.34;79.14
15529;BME280;7866;52.280;9.500;2022-09-13T22:23:38;99670.47;;;15.31;79.14
15529;BME280;7866;52.280;9.500;2022-09-13T22:28:42;99670.28;;;15.26;79.28
15529;BME280;7866;52.280;9.500;2022-09-13T22:33:44;99670.72;;;15.23;79.17
15529;BME280;7866;52.280;9.500;2022-09-13T22:38:47;99675.25;;;15.29;79.43
15529;BME280;7866;52.280;9.500;2022-09-13T22:43:50;99666.75;;;15.32;79.21
15529;BME280;7866;52.280;9.500;2022-09-13T22:48:52;99662.44;;;15.24;79.73
15529;BME280;7866;52.280;9.500;2022-09-13T22:53:54;99663.25;;;15.25;79.70
15529;BME280;7866;52.280;9.500;2022-09-13T22:58:59;99651.03;;;15.16;80.05
15529;BME280;7866;52.280;9.500;2022-09-13T23:04:02;99646.28;;;15.11;80.21
15529;BME280;7866;52.280;9.500;2022-09-13T23:09:06;99639.56;;;15.27;79.36
15529;BME280;7866;52.280;9.500;2022-09-13T23:14:11;99640.50;;;15.08;79.69
15529;BME280;7866;52.280;9.500;2022-09-13T23:19:13;99639.69;;;15.07;79.75
15529;BME280;7866;52.280;9.500;2022-09-13T23:24:17;99631.66;;;14.94;79.79
15529;BME280;7866;52.280;9.500;2022-09-13T23:29:20;99615.72;;;14.92;80.05
15529;BME280;7866;52.280;9.500;2022-09-13T23:34:22;99624.06;;;14.77;80.14
15529;BME280;7866;52.280;9.500;2022-09-13T23:39:24;99605.63;;;14.74;80.18
15529;BME280;7866;52.280;9.500;2022-09-13T23:44:27;99616.00;;;14.71;79.99
15529;BME280;7866;52.280;9.500;2022-09-13T23:49:29;99616.59;;;14.79;80.38
15529;BME280;7866;52.280;9.500;2022-09-13T23:54:31;99619.09;;;14.74;80.36
15529;BME280;7866;52.280;9.500;2022-09-13T23:59:34;99605.63;;;14.74;79.71
